Saddlestring, Wyoming
Current Conditions -  °F | °C
As of 2:53 PM on Monday 24 Nov 2014 (Local Time) from KBYG Reporting Station
Few Clouds Few Clouds  
Wind Chill: 23°   Ceiling: Unl
Heat Index: 33°   Visibility: 10mi
Dew Point: 18°   Wind: 14mph
Humidity: 54%   Direction: 330°NNW
Pressure: 30.08"   Gusts: 26mph
Location:  44.46°N, 106.9°W
Report Text: KBYG 242153Z AUTO 33012G23KT 10SM FEW031 FEW060 01/M08 A3008 RMK AO2 PK WND 34042/2127 SNE2057B30E41 SLP209 P0000 T00061078
Loading
Personal Weather Stations






























Interactive Weather Map New forecast layout! Learn more

10-Day Weather Forecast

Advertisements
Track Severe Weather on mobile